Time,TemperatureF,DewpointF,PressureIn,WindDirection,WindDirectionDegrees,WindSpeedMPH,WindSpeedGustMPH,Humidity,HourlyPrecipIn,Conditions,Clouds,dailyrainin,SoftwareType,DateUTC
2013-01-11 00:02:00,32.8,31.0,29.66,SSE,163,6.0,9.0,93,0.00,,,0.00,Wunderground v.1.15,2013-01-11 06:02:00,
2013-01-11 00:07:00,32.9,31.1,29.66,SSE,164,9.0,11.0,93,0.00,,,0.00,Wunderground v.1.15,2013-01-11 06:07:00,
2013-01-11 00:12:00,32.8,31.0,29.65,SSE,163,9.0,9.0,93,0.00,,,0.00,Wunderground v.1.15,2013-01-11 06:12:00,
2013-01-11 00:18:00,32.8,31.0,29.65,SSE,163,12.0,12.0,93,0.00,,,0.00,Wunderground v.1.15,2013-01-11 06:18:00,
2013-01-11 00:23:00,32.8,31.0,29.65,SSE,163,8.0,11.0,93,0.00,,,0.00,Wunderground v.1.15,2013-01-11 06:23:00,
2013-01-11 00:28:00,32.9,31.1,29.64,SSE,165,7.0,11.0,93,0.00,,,0.00,Wunderground v.1.15,2013-01-11 06:28:00,
2013-01-11 00:34:00,33.0,31.2,29.64,SSE,168,9.0,12.0,93,0.00,,,0.00,Wunderground v.1.15,2013-01-11 06:34:00,
2013-01-11 00:39:00,33.0,31.2,29.63,SSE,167,7.0,12.0,93,0.00,,,0.00,Wunderground v.1.15,2013-01-11 06:39:00,
2013-01-11 00:46:00,33.0,31.2,29.63,SSE,167,8.0,9.0,93,0.00,,,0.00,Wunderground v.1.15,2013-01-11 06:46:00,
2013-01-11 00:51:00,33.1,31.3,29.63,SSE,168,7.0,8.0,93,0.00,,,0.00,Wunderground v.1.15,2013-01-11 06:51:00,
2013-01-11 00:57:00,33.1,31.3,29.63,SSE,168,6.0,8.0,93,0.00,,,0.00,Wunderground v.1.15,2013-01-11 06:57:00,
2013-01-11 01:02:00,33.0,31.2,29.63,South,169,7.0,8.0,93,0.00,,,0.00,Wunderground v.1.15,2013-01-11 07:02:00,
2013-01-11 01:08:00,33.1,31.3,29.63,South,169,10.0,11.0,93,0.00,,,0.00,Wunderground v.1.15,2013-01-11 07:08:00,
2013-01-11 01:14:00,33.1,31.3,29.63,South,169,9.0,9.0,93,0.00,,,0.00,Wunderground v.1.15,2013-01-11 07:14:00,
2013-01-11 01:19:00,33.1,31.3,29.62,SSE,168,8.0,9.0,93,0.00,,,0.00,Wunderground v.1.15,2013-01-11 07:19:00,
2013-01-11 01:24:00,33.4,31.6,29.62,South,173,7.0,12.0,93,0.00,,,0.00,Wunderground v.1.15,2013-01-11 07:24:00,
2013-01-11 01:30:00,33.5,31.7,29.61,South,173,9.0,12.0,93,0.00,,,0.00,Wunderground v.1.15,2013-01-11 07:30:00,
2013-01-11 01:36:00,33.5,31.7,29.61,South,169,12.0,12.0,93,0.00,,,0.00,Wunderground v.1.15,2013-01-11 07:36:00,
2013-01-11 01:43:00,33.5,31.7,29.61,South,170,7.0,9.0,93,0.00,,,0.00,Wunderground v.1.15,2013-01-11 07:43:00,
2013-01-11 01:48:00,33.3,31.5,29.61,SSE,165,10.0,11.0,93,0.00,,,0.00,Wunderground v.1.15,2013-01-11 07:48:00,
2013-01-11 01:54:00,33.3,31.5,29.61,SSE,167,7.0,10.0,93,0.00,,,0.00,Wunderground v.1.15,2013-01-11 07:54:00,
2013-01-11 01:59:00,33.2,31.4,29.60,SSE,165,8.0,10.0,93,0.00,,,0.00,Wunderground v.1.15,2013-01-11 07:59:00,
2013-01-11 02:04:00,33.3,31.5,29.60,SSE,165,14.0,14.0,93,0.00,,,0.00,Wunderground v.1.15,2013-01-11 08:04:00,
2013-01-11 02:09:00,33.2,31.4,29.60,SSE,168,9.0,14.0,93,0.00,,,0.00,Wunderground v.1.15,2013-01-11 08:09:00,
2013-01-11 02:15:00,33.2,31.4,29.60,SSE,165,9.0,12.0,93,0.00,,,0.00,Wunderground v.1.15,2013-01-11 08:15:00,
2013-01-11 02:20:00,33.4,31.6,29.60,SSE,165,12.0,13.0,93,0.00,,,0.00,Wunderground v.1.15,2013-01-11 08:20:00,
2013-01-11 02:25:00,33.4,31.6,29.60,South,172,9.0,13.0,93,0.00,,,0.00,Wunderground v.1.15,2013-01-11 08:25:00,
2013-01-11 02:31:00,33.4,31.6,29.60,South,171,9.0,10.0,93,0.00,,,0.00,Wunderground v.1.15,2013-01-11 08:31:00,
2013-01-11 02:36:00,33.4,31.6,29.60,South,169,12.0,15.0,93,0.00,,,0.00,Wunderground v.1.15,2013-01-11 08:36:00,
2013-01-11 02:41:00,33.4,31.6,29.61,South,170,11.0,11.0,93,0.00,,,0.00,Wunderground v.1.15,2013-01-11 08:41:00,
2013-01-11 02:48:00,33.3,31.5,29.60,South,169,10.0,11.0,93,0.00,,,0.00,Wunderground v.1.15,2013-01-11 08:48:00,
2013-01-11 02:53:00,33.3,31.5,29.60,South,172,14.0,14.0,93,0.00,,,0.00,Wunderground v.1.15,2013-01-11 08:53:00,
2013-01-11 02:59:00,33.3,31.5,29.60,South,173,8.0,14.0,93,0.00,,,0.00,Wunderground v.1.15,2013-01-11 08:59:00,
2013-01-11 03:04:00,33.2,31.4,29.59,South,169,11.0,13.0,93,0.00,,,0.00,Wunderground v.1.15,2013-01-11 09:04:00,
2013-01-11 03:09:00,33.4,31.6,29.60,SSE,168,7.0,13.0,93,0.00,,,0.00,Wunderground v.1.15,2013-01-11 09:09:00,
2013-01-11 03:15:00,33.4,31.6,29.60,South,169,8.0,10.0,93,0.00,,,0.00,Wunderground v.1.15,2013-01-11 09:15:00,
2013-01-11 03:20:00,33.3,31.5,29.59,South,169,6.0,10.0,93,0.00,,,0.00,Wunderground v.1.15,2013-01-11 09:20:00,
2013-01-11 03:25:00,33.3,31.5,29.59,South,170,8.0,9.0,93,0.00,,,0.00,Wunderground v.1.15,2013-01-11 09:25:00,
2013-01-11 03:30:00,33.3,31.5,29.59,South,169,8.0,10.0,93,0.00,,,0.00,Wunderground v.1.15,2013-01-11 09:30:00,
2013-01-11 03:35:00,33.2,31.7,29.59,South,170,10.0,10.0,94,0.00,,,0.00,Wunderground v.1.15,2013-01-11 09:35:00,
2013-01-11 03:40:00,33.3,31.5,29.59,South,170,5.0,10.0,93,0.00,,,0.00,Wunderground v.1.15,2013-01-11 09:40:00,
2013-01-11 03:45:00,33.3,31.5,29.59,South,171,8.0,9.0,93,0.00,,,0.00,Wunderground v.1.15,2013-01-11 09:45:00,
2013-01-11 03:51:00,33.2,31.7,29.59,South,171,4.0,7.0,94,0.00,,,0.00,Wunderground v.1.15,2013-01-11 09:51:00,
2013-01-11 03:56:00,33.1,31.6,29.58,South,171,9.0,9.0,94,0.00,,,0.00,Wunderground v.1.15,2013-01-11 09:56:00,
2013-01-11 04:02:00,33.0,31.5,29.58,South,171,5.0,7.0,94,0.00,,,0.00,Wunderground v.1.15,2013-01-11 10:02:00,
2013-01-11 04:07:00,33.1,31.6,29.58,South,171,4.0,10.0,94,0.00,,,0.00,Wunderground v.1.15,2013-01-11 10:07:00,
2013-01-11 04:12:00,33.0,31.5,29.59,South,172,8.0,8.0,94,0.00,,,0.00,Wunderground v.1.15,2013-01-11 10:12:00,
2013-01-11 04:17:00,33.0,31.5,29.58,South,172,7.0,8.0,94,0.00,,,0.00,Wunderground v.1.15,2013-01-11 10:17:00,
2013-01-11 04:22:00,32.9,31.1,29.57,South,172,6.0,12.0,93,0.00,,,0.00,Wunderground v.1.15,2013-01-11 10:22:00,
2013-01-11 04:27:00,33.0,31.2,29.57,South,172,5.0,12.0,93,0.00,,,0.00,Wunderground v.1.15,2013-01-11 10:27:00,
2013-01-11 04:32:00,33.0,31.2,29.57,South,172,11.0,11.0,93,0.00,,,0.00,Wunderground v.1.15,2013-01-11 10:32:00,
2013-01-11 04:38:00,33.1,31.6,29.56,South,172,6.0,11.0,94,0.00,,,0.00,Wunderground v.1.15,2013-01-11 10:38:00,
2013-01-11 04:43:00,33.0,31.2,29.56,South,172,8.0,8.0,93,0.00,,,0.00,Wunderground v.1.15,2013-01-11 10:43:00,
2013-01-11 04:48:00,32.9,31.4,29.56,South,172,7.0,9.0,94,0.00,,,0.00,Wunderground v.1.15,2013-01-11 10:48:00,
2013-01-11 04:53:00,32.8,31.3,29.55,South,172,9.0,9.0,94,0.00,,,0.00,Wunderground v.1.15,2013-01-11 10:53:00,
2013-01-11 04:58:00,32.8,31.3,29.55,South,169,6.0,9.0,94,0.00,,,0.00,Wunderground v.1.15,2013-01-11 10:58:00,
2013-01-11 05:04:00,33.0,31.5,29.55,South,170,7.0,10.0,94,0.00,,,0.00,Wunderground v.1.15,2013-01-11 11:04:00,
2013-01-11 05:09:00,32.9,31.4,29.55,South,169,8.0,10.0,94,0.00,,,0.00,Wunderground v.1.15,2013-01-11 11:09:00,
2013-01-11 05:15:00,33.0,31.5,29.55,South,169,8.0,9.0,94,0.00,,,0.00,Wunderground v.1.15,2013-01-11 11:15:00,
2013-01-11 05:20:00,33.0,31.5,29.55,South,170,5.0,11.0,94,0.00,,,0.00,Wunderground v.1.15,2013-01-11 11:20:00,
2013-01-11 05:25:00,33.0,31.5,29.55,South,170,7.0,9.0,94,0.00,,,0.00,Wunderground v.1.15,2013-01-11 11:25:00,
2013-01-11 05:31:00,33.0,31.5,29.55,South,169,6.0,6.0,94,0.00,,,0.00,Wunderground v.1.15,2013-01-11 11:31:00,
2013-01-11 05:36:00,32.9,31.4,29.54,South,170,5.0,9.0,94,0.00,,,0.00,Wunderground v.1.15,2013-01-11 11:36:00,
2013-01-11 05:41:00,32.9,31.4,29.53,SSE,168,8.0,9.0,94,0.00,,,0.00,Wunderground v.1.15,2013-01-11 11:41:00,
2013-01-11 05:47:00,32.9,31.4,29.53,SSE,167,8.0,10.0,94,0.00,,,0.00,Wunderground v.1.15,2013-01-11 11:47:00,
2013-01-11 05:52:00,33.0,31.5,29.53,SSE,167,4.0,9.0,94,0.00,,,0.00,Wunderground v.1.15,2013-01-11 11:52:00,
2013-01-11 05:57:00,33.1,31.6,29.53,SSE,167,9.0,10.0,94,0.00,,,0.00,Wunderground v.1.15,2013-01-11 11:57:00,
2013-01-11 06:02:00,33.1,31.6,29.53,SSE,167,7.0,9.0,94,0.00,,,0.00,Wunderground v.1.15,2013-01-11 12:02:00,
2013-01-11 06:07:00,33.2,31.7,29.52,SSE,168,10.0,12.0,94,0.00,,,0.00,Wunderground v.1.15,2013-01-11 12:07:00,
2013-01-11 06:12:00,33.1,31.6,29.53,South,171,7.0,12.0,94,0.00,,,0.00,Wunderground v.1.15,2013-01-11 12:12:00,
2013-01-11 06:17:00,33.0,31.5,29.53,SSE,167,9.0,15.0,94,0.00,,,0.00,Wunderground v.1.15,2013-01-11 12:17:00,
2013-01-11 06:22:00,32.9,31.4,29.52,SSE,165,6.0,14.0,94,0.00,,,0.00,Wunderground v.1.15,2013-01-11 12:22:00,
2013-01-11 06:27:00,32.9,31.4,29.52,SSE,164,9.0,14.0,94,0.00,,,0.00,Wunderground v.1.15,2013-01-11 12:27:00,
2013-01-11 06:32:00,32.9,31.4,29.51,SSE,164,8.0,10.0,94,0.00,,,0.00,Wunderground v.1.15,2013-01-11 12:32:00,
2013-01-11 06:37:00,33.1,31.6,29.52,SSE,165,7.0,12.0,94,0.00,,,0.00,Wunderground v.1.15,2013-01-11 12:37:00,
2013-01-11 06:42:00,33.1,31.6,29.52,SSE,166,9.0,10.0,94,0.00,,,0.00,Wunderground v.1.15,2013-01-11 12:42:00,
2013-01-11 06:47:00,33.2,31.7,29.53,South,172,5.0,11.0,94,0.00,,,0.00,Wunderground v.1.15,2013-01-11 12:47:00,
2013-01-11 06:52:00,33.4,31.9,29.53,South,171,8.0,11.0,94,0.00,,,0.00,Wunderground v.1.15,2013-01-11 12:52:00,
2013-01-11 06:57:00,33.3,31.8,29.52,South,169,8.0,11.0,94,0.00,,,0.00,Wunderground v.1.15,2013-01-11 12:57:00,
2013-01-11 07:02:00,33.3,31.8,29.52,SSE,167,8.0,9.0,94,0.00,,,0.00,Wunderground v.1.15,2013-01-11 13:02:00,
2013-01-11 07:07:00,33.3,31.8,29.52,SSE,167,7.0,11.0,94,0.00,,,0.00,Wunderground v.1.15,2013-01-11 13:07:00,
2013-01-11 07:12:00,33.5,32.0,29.53,South,171,12.0,12.0,94,0.00,,,0.00,Wunderground v.1.15,2013-01-11 13:12:00,
2013-01-11 07:17:00,33.6,32.1,29.52,South,171,10.0,12.0,94,0.00,,,0.00,Wunderground v.1.15,2013-01-11 13:17:00,
2013-01-11 07:22:00,33.5,32.0,29.51,SSE,165,8.0,11.0,94,0.00,,,0.00,Wunderground v.1.15,2013-01-11 13:22:00,
2013-01-11 07:27:00,33.5,32.0,29.51,South,171,11.0,12.0,94,0.00,,,0.00,Wunderground v.1.15,2013-01-11 13:27:00,
2013-01-11 07:32:00,33.5,32.0,29.51,SSE,165,10.0,11.0,94,0.00,,,0.00,Wunderground v.1.15,2013-01-11 13:32:00,
2013-01-11 07:37:00,33.5,32.0,29.51,SSE,167,12.0,14.0,94,0.00,,,0.00,Wunderground v.1.15,2013-01-11 13:37:00,
2013-01-11 07:42:00,33.4,31.9,29.52,SSE,165,8.0,10.0,94,0.00,,,0.00,Wunderground v.1.15,2013-01-11 13:42:00,
2013-01-11 07:47:00,33.4,31.9,29.52,South,171,7.0,13.0,94,0.00,,,0.00,Wunderground v.1.15,2013-01-11 13:47:00,
2013-01-11 07:53:00,33.5,32.0,29.52,South,169,7.0,11.0,94,0.00,,,0.00,Wunderground v.1.15,2013-01-11 13:53:00,
2013-01-11 07:58:00,33.5,32.0,29.52,South,170,8.0,12.0,94,0.00,,,0.00,Wunderground v.1.15,2013-01-11 13:58:00,
2013-01-11 08:03:00,33.5,32.0,29.51,South,173,10.0,13.0,94,0.00,,,0.00,Wunderground v.1.15,2013-01-11 14:03:00,
2013-01-11 08:08:00,33.5,32.0,29.51,SSE,163,11.0,13.0,94,0.00,,,0.00,Wunderground v.1.15,2013-01-11 14:08:00,
2013-01-11 08:13:00,33.5,32.0,29.50,South,169,11.0,17.0,94,0.00,,,0.00,Wunderground v.1.15,2013-01-11 14:13:00,
2013-01-11 08:18:00,33.4,31.9,29.50,South,171,11.0,17.0,94,0.00,,,0.00,Wunderground v.1.15,2013-01-11 14:18:00,
2013-01-11 08:23:00,33.3,31.8,29.49,SSE,167,10.0,15.0,94,0.00,,,0.00,Wunderground v.1.15,2013-01-11 14:23:00,
2013-01-11 08:29:00,33.5,32.0,29.49,South,171,11.0,16.0,94,0.00,,,0.00,Wunderground v.1.15,2013-01-11 14:29:00,
2013-01-11 08:34:00,33.5,32.0,29.49,South,176,8.0,14.0,94,0.00,,,0.00,Wunderground v.1.15,2013-01-11 14:34:00,
2013-01-11 08:40:00,33.5,32.0,29.49,South,170,8.0,17.0,94,0.00,,,0.00,Wunderground v.1.15,2013-01-11 14:40:00,
2013-01-11 08:45:00,33.4,31.9,29.49,SSE,167,9.0,13.0,94,0.00,,,0.00,Wunderground v.1.15,2013-01-11 14:45:00,
2013-01-11 08:52:00,33.4,31.9,29.49,SSE,168,8.0,10.0,94,0.00,,,0.00,Wunderground v.1.15,2013-01-11 14:52:00,
2013-01-11 08:57:00,33.4,31.9,29.50,South,179,12.0,12.0,94,0.00,,,0.00,Wunderground v.1.15,2013-01-11 14:57:00,
2013-01-11 09:02:00,33.4,31.9,29.50,South,170,12.0,15.0,94,0.00,,,0.00,Wunderground v.1.15,2013-01-11 15:02:00,
2013-01-11 09:07:00,33.6,32.1,29.51,South,185,8.0,16.0,94,0.00,,,0.00,Wunderground v.1.15,2013-01-11 15:07:00,
2013-01-11 09:12:00,33.8,32.3,29.52,South,176,12.0,16.0,94,0.00,,,0.00,Wunderground v.1.15,2013-01-11 15:12:00,
2013-01-11 09:17:00,33.6,32.1,29.51,South,179,12.0,19.0,94,0.00,,,0.00,Wunderground v.1.15,2013-01-11 15:17:00,
2013-01-11 09:22:00,33.5,32.0,29.52,South,179,12.0,18.0,94,0.00,,,0.00,Wunderground v.1.15,2013-01-11 15:22:00,
2013-01-11 09:27:00,33.5,32.0,29.51,South,175,11.0,18.0,94,0.00,,,0.00,Wunderground v.1.15,2013-01-11 15:27:00,
2013-01-11 09:32:00,33.5,32.0,29.51,South,180,12.0,13.0,94,0.00,,,0.00,Wunderground v.1.15,2013-01-11 15:32:00,
2013-01-11 09:37:00,33.5,32.0,29.51,South,175,7.0,17.0,94,0.00,,,0.00,Wunderground v.1.15,2013-01-11 15:37:00,
2013-01-11 09:42:00,33.6,32.1,29.52,South,182,7.0,10.0,94,0.00,,,0.00,Wunderground v.1.15,2013-01-11 15:42:00,
2013-01-11 09:47:00,33.6,32.1,29.52,South,179,8.0,10.0,94,0.00,,,0.00,Wunderground v.1.15,2013-01-11 15:47:00,
2013-01-11 09:52:00,33.7,32.2,29.52,South,182,6.0,8.0,94,0.00,,,0.00,Wunderground v.1.15,2013-01-11 15:52:00,
2013-01-11 09:57:00,33.8,32.3,29.51,South,173,9.0,10.0,94,0.00,,,0.00,Wunderground v.1.15,2013-01-11 15:57:00,
2013-01-11 10:02:00,33.9,32.4,29.51,South,177,7.0,9.0,94,0.00,,,0.00,Wunderground v.1.15,2013-01-11 16:02:00,
2013-01-11 10:07:00,33.9,32.4,29.51,South,180,13.0,14.0,94,0.00,,,0.00,Wunderground v.1.15,2013-01-11 16:07:00,
2013-01-11 10:12:00,34.0,32.5,29.50,South,176,9.0,9.0,94,0.00,,,0.00,Wunderground v.1.15,2013-01-11 16:12:00,
2013-01-11 10:17:00,34.1,32.6,29.50,South,179,8.0,12.0,94,0.00,,,0.00,Wunderground v.1.15,2013-01-11 16:17:00,
2013-01-11 10:22:00,34.2,32.7,29.50,SSE,167,9.0,9.0,94,0.00,,,0.00,Wunderground v.1.15,2013-01-11 16:22:00,
2013-01-11 10:27:00,34.4,32.9,29.50,South,180,8.0,14.0,94,0.00,,,0.00,Wunderground v.1.15,2013-01-11 16:27:00,
2013-01-11 10:33:00,34.4,32.9,29.49,South,180,6.0,12.0,94,0.00,,,0.00,Wunderground v.1.15,2013-01-11 16:33:00,
2013-01-11 10:39:00,34.5,33.0,29.49,South,179,7.0,15.0,94,0.00,,,0.00,Wunderground v.1.15,2013-01-11 16:39:00,
2013-01-11 10:45:00,34.4,32.9,29.48,South,174,9.0,12.0,94,0.00,,,0.00,Wunderground v.1.15,2013-01-11 16:45:00,
2013-01-11 10:50:00,34.4,32.9,29.49,SSE,168,5.0,12.0,94,0.00,,,0.00,Wunderground v.1.15,2013-01-11 16:50:00,
2013-01-11 10:55:00,34.5,33.0,29.48,South,174,7.0,10.0,94,0.00,,,0.00,Wunderground v.1.15,2013-01-11 16:55:00,
2013-01-11 11:01:00,34.8,33.2,29.47,South,179,9.0,9.0,94,0.00,,,0.00,Wunderground v.1.15,2013-01-11 17:01:00,
2013-01-11 11:06:00,35.0,33.4,29.47,South,176,7.0,13.0,94,0.00,,,0.00,Wunderground v.1.15,2013-01-11 17:06:00,
2013-01-11 11:11:00,35.0,33.4,29.46,SSE,168,9.0,9.0,94,0.00,,,0.00,Wunderground v.1.15,2013-01-11 17:11:00,
2013-01-11 11:16:00,35.0,33.4,29.46,South,169,9.0,11.0,94,0.00,,,0.00,Wunderground v.1.15,2013-01-11 17:16:00,
2013-01-11 11:21:00,35.0,33.4,29.46,South,171,9.0,10.0,94,0.00,,,0.00,Wunderground v.1.15,2013-01-11 17:21:00,
2013-01-11 11:27:00,35.1,33.5,29.45,South,175,7.0,14.0,94,0.00,,,0.00,Wunderground v.1.15,2013-01-11 17:27:00,
2013-01-11 11:32:00,35.1,33.5,29.45,South,171,6.0,8.0,94,0.00,,,0.00,Wunderground v.1.15,2013-01-11 17:32:00,
2013-01-11 11:37:00,35.3,33.7,29.44,South,175,5.0,10.0,94,0.00,,,0.00,Wunderground v.1.15,2013-01-11 17:37:00,
2013-01-11 11:42:00,35.5,33.9,29.44,South,175,7.0,9.0,94,0.00,,,0.00,Wunderground v.1.15,2013-01-11 17:42:00,
2013-01-11 11:47:00,35.4,33.8,29.45,South,172,8.0,9.0,94,0.00,,,0.00,Wunderground v.1.15,2013-01-11 17:47:00,
2013-01-11 11:52:00,35.3,33.7,29.45,SSE,168,6.0,7.0,94,0.00,,,0.00,Wunderground v.1.15,2013-01-11 17:52:00,
2013-01-11 11:57:00,35.0,33.4,29.44,South,169,5.0,8.0,94,0.00,,,0.00,Wunderground v.1.15,2013-01-11 17:57:00,
2013-01-11 12:02:00,35.0,33.4,29.43,South,169,10.0,10.0,94,0.00,,,0.00,Wunderground v.1.15,2013-01-11 18:02:00,
2013-01-11 12:07:00,35.0,33.4,29.43,South,169,6.0,10.0,94,0.00,,,0.00,Wunderground v.1.15,2013-01-11 18:07:00,
2013-01-11 12:12:00,35.3,33.7,29.43,South,172,5.0,11.0,94,0.00,,,0.00,Wunderground v.1.15,2013-01-11 18:12:00,
2013-01-11 12:17:00,35.4,33.8,29.42,South,180,5.0,11.0,94,0.00,,,0.00,Wunderground v.1.15,2013-01-11 18:17:00,
2013-01-11 12:22:00,35.7,34.1,29.42,South,179,7.0,12.0,94,0.00,,,0.00,Wunderground v.1.15,2013-01-11 18:22:00,
2013-01-11 12:27:00,35.7,34.1,29.42,South,173,9.0,12.0,94,0.00,,,0.00,Wunderground v.1.15,2013-01-11 18:27:00,
2013-01-11 12:32:00,35.5,33.9,29.41,South,171,7.0,12.0,94,0.00,,,0.00,Wunderground v.1.15,2013-01-11 18:32:00,
2013-01-11 12:37:00,35.5,33.9,29.41,South,172,6.0,12.0,94,0.00,,,0.00,Wunderground v.1.15,2013-01-11 18:37:00,
2013-01-11 12:43:00,35.4,33.8,29.41,South,178,9.0,12.0,94,0.00,,,0.00,Wunderground v.1.15,2013-01-11 18:43:00,
2013-01-11 12:48:00,35.5,33.9,29.41,SSE,167,9.0,13.0,94,0.00,,,0.00,Wunderground v.1.15,2013-01-11 18:48:00,
2013-01-11 12:53:00,35.5,33.9,29.41,South,169,8.0,11.0,94,0.00,,,0.00,Wunderground v.1.15,2013-01-11 18:53:00,
2013-01-11 12:58:00,35.6,34.0,29.41,South,169,9.0,11.0,94,0.00,,,0.00,Wunderground v.1.15,2013-01-11 18:58:00,
2013-01-11 13:03:00,35.5,33.9,29.40,South,172,8.0,9.0,94,0.00,,,0.00,Wunderground v.1.15,2013-01-11 19:03:00,
2013-01-11 13:08:00,35.6,34.0,29.40,SSE,165,7.0,12.0,94,0.00,,,0.00,Wunderground v.1.15,2013-01-11 19:08:00,
2013-01-11 13:13:00,35.7,34.1,29.40,SSE,168,6.0,8.0,94,0.00,,,0.00,Wunderground v.1.15,2013-01-11 19:13:00,
2013-01-11 13:18:00,35.7,34.1,29.40,SSE,165,10.0,11.0,94,0.00,,,0.00,Wunderground v.1.15,2013-01-11 19:18:00,
2013-01-11 13:23:00,35.7,34.1,29.39,SSE,159,9.0,10.0,94,0.00,,,0.00,Wunderground v.1.15,2013-01-11 19:23:00,
2013-01-11 13:28:00,35.9,34.3,29.39,SSE,167,9.0,12.0,94,0.00,,,0.00,Wunderground v.1.15,2013-01-11 19:28:00,
2013-01-11 13:34:00,36.0,34.4,29.39,South,169,11.0,11.0,94,0.00,,,0.00,Wunderground v.1.15,2013-01-11 19:34:00,
2013-01-11 13:39:00,36.0,34.4,29.39,SSE,168,8.0,12.0,94,0.00,,,0.00,Wunderground v.1.15,2013-01-11 19:39:00,
2013-01-11 13:44:00,36.0,34.4,29.39,SSE,165,11.0,11.0,94,0.00,,,0.00,Wunderground v.1.15,2013-01-11 19:44:00,
2013-01-11 13:50:00,36.2,34.6,29.38,SSE,161,7.0,13.0,94,0.00,,,0.00,Wunderground v.1.15,2013-01-11 19:50:00,
2013-01-11 13:55:00,36.3,34.7,29.39,SSE,165,12.0,13.0,94,0.00,,,0.00,Wunderground v.1.15,2013-01-11 19:55:00,
2013-01-11 14:00:00,36.2,34.6,29.39,South,172,7.0,8.0,94,0.00,,,0.00,Wunderground v.1.15,2013-01-11 20:00:00,
2013-01-11 14:06:00,36.3,34.7,29.38,SSE,167,6.0,14.0,94,0.00,,,0.00,Wunderground v.1.15,2013-01-11 20:06:00,
2013-01-11 14:11:00,36.4,34.8,29.38,SSE,163,9.0,9.0,94,0.00,,,0.00,Wunderground v.1.15,2013-01-11 20:11:00,
2013-01-11 14:16:00,36.4,34.8,29.39,SSE,165,7.0,11.0,94,0.00,,,0.00,Wunderground v.1.15,2013-01-11 20:16:00,
2013-01-11 14:22:00,36.5,34.9,29.39,SSE,167,9.0,10.0,94,0.00,,,0.00,Wunderground v.1.15,2013-01-11 20:22:00,
2013-01-11 14:27:00,36.3,34.7,29.38,SSE,163,9.0,10.0,94,0.00,,,0.00,Wunderground v.1.15,2013-01-11 20:27:00,
2013-01-11 14:32:00,36.4,34.8,29.38,SSE,168,7.0,9.0,94,0.00,,,0.00,Wunderground v.1.15,2013-01-11 20:32:00,
2013-01-11 14:37:00,36.4,34.8,29.38,SSE,161,8.0,12.0,94,0.00,,,0.00,Wunderground v.1.15,2013-01-11 20:37:00,
2013-01-11 14:43:00,36.5,34.9,29.38,SSE,165,6.0,11.0,94,0.00,,,0.00,Wunderground v.1.15,2013-01-11 20:43:00,
2013-01-11 14:48:00,36.5,34.9,29.38,SSE,164,7.0,11.0,94,0.00,,,0.00,Wunderground v.1.15,2013-01-11 20:48:00,
2013-01-11 14:53:00,36.6,35.0,29.38,SSE,165,4.0,10.0,94,0.00,,,0.00,Wunderground v.1.15,2013-01-11 20:53:00,
2013-01-11 14:58:00,36.6,35.0,29.38,SSE,166,6.0,10.0,94,0.00,,,0.00,Wunderground v.1.15,2013-01-11 20:58:00,
2013-01-11 15:03:00,36.5,34.9,29.38,SSE,167,7.0,10.0,94,0.00,,,0.00,Wunderground v.1.15,2013-01-11 21:03:00,
2013-01-11 15:08:00,36.7,35.1,29.37,SSE,167,8.0,10.0,94,0.00,,,0.00,Wunderground v.1.15,2013-01-11 21:08:00,
2013-01-11 15:13:00,36.8,35.2,29.38,SSE,167,7.0,9.0,94,0.00,,,0.00,Wunderground v.1.15,2013-01-11 21:13:00,
2013-01-11 15:19:00,37.1,35.5,29.38,South,177,10.0,13.0,94,0.00,,,0.00,Wunderground v.1.15,2013-01-11 21:19:00,
2013-01-11 15:24:00,37.3,35.7,29.38,South,180,8.0,16.0,94,0.00,,,0.00,Wunderground v.1.15,2013-01-11 21:24:00,
2013-01-11 15:29:00,37.3,35.7,29.38,South,179,11.0,16.0,94,0.00,,,0.00,Wunderground v.1.15,2013-01-11 21:29:00,
2013-01-11 15:34:00,37.0,35.4,29.38,South,175,7.0,9.0,94,0.00,,,0.00,Wunderground v.1.15,2013-01-11 21:34:00,
2013-01-11 15:39:00,37.0,35.4,29.37,South,169,6.0,11.0,94,0.00,,,0.00,Wunderground v.1.15,2013-01-11 21:39:00,
2013-01-11 15:44:00,37.0,35.4,29.37,South,169,8.0,10.0,94,0.00,,,0.00,Wunderground v.1.15,2013-01-11 21:44:00,
2013-01-11 15:49:00,36.8,35.2,29.38,South,174,11.0,11.0,94,0.00,,,0.00,Wunderground v.1.15,2013-01-11 21:49:00,
2013-01-11 15:54:00,36.9,35.3,29.38,South,175,6.0,10.0,94,0.00,,,0.00,Wunderground v.1.15,2013-01-11 21:54:00,
2013-01-11 16:00:00,36.9,35.3,29.38,South,174,8.0,12.0,94,0.00,,,0.00,Wunderground v.1.15,2013-01-11 22:00:00,
2013-01-11 16:06:00,36.8,35.2,29.37,South,174,5.0,9.0,94,0.00,,,0.00,Wunderground v.1.15,2013-01-11 22:06:00,
2013-01-11 16:11:00,36.6,35.0,29.37,South,174,8.0,8.0,94,0.00,,,0.00,Wunderground v.1.15,2013-01-11 22:11:00,
2013-01-11 16:16:00,36.8,35.2,29.37,South,174,7.0,8.0,94,0.00,,,0.00,Wunderground v.1.15,2013-01-11 22:16:00,
2013-01-11 16:21:00,37.0,35.4,29.37,South,174,6.0,7.0,94,0.00,,,0.00,Wunderground v.1.15,2013-01-11 22:21:00,
2013-01-11 16:26:00,37.0,35.4,29.38,South,174,6.0,10.0,94,0.00,,,0.00,Wunderground v.1.15,2013-01-11 22:26:00,
2013-01-11 16:31:00,37.2,35.6,29.37,South,176,7.0,8.0,94,0.00,,,0.00,Wunderground v.1.15,2013-01-11 22:31:00,
2013-01-11 16:37:00,37.3,35.7,29.37,South,176,7.0,10.0,94,0.00,,,0.00,Wunderground v.1.15,2013-01-11 22:37:00,
2013-01-11 16:42:00,37.2,35.6,29.36,South,177,4.0,7.0,94,0.00,,,0.00,Wunderground v.1.15,2013-01-11 22:42:00,
2013-01-11 16:47:00,37.2,35.6,29.35,South,176,7.0,10.0,94,0.00,,,0.00,Wunderground v.1.15,2013-01-11 22:47:00,
2013-01-11 16:52:00,37.1,35.5,29.35,South,176,6.0,6.0,94,0.00,,,0.00,Wunderground v.1.15,2013-01-11 22:52:00,
2013-01-11 16:57:00,36.9,35.3,29.35,South,176,7.0,9.0,94,0.00,,,0.00,Wunderground v.1.15,2013-01-11 22:57:00,
2013-01-11 17:02:00,37.1,35.5,29.35,South,176,4.0,7.0,94,0.00,,,0.00,Wunderground v.1.15,2013-01-11 23:02:00,
2013-01-11 17:07:00,37.2,35.6,29.36,South,174,8.0,10.0,94,0.00,,,0.00,Wunderground v.1.15,2013-01-11 23:07:00,
2013-01-11 17:13:00,37.3,35.7,29.36,South,175,6.0,10.0,94,0.00,,,0.00,Wunderground v.1.15,2013-01-11 23:13:00,
2013-01-11 17:18:00,37.2,35.6,29.36,South,173,7.0,10.0,94,0.00,,,0.00,Wunderground v.1.15,2013-01-11 23:18:00,
2013-01-11 17:23:00,37.2,35.6,29.35,South,172,5.0,10.0,94,0.00,,,0.00,Wunderground v.1.15,2013-01-11 23:23:00,
2013-01-11 17:28:00,37.7,36.1,29.36,South,174,10.0,12.0,94,0.00,,,0.00,Wunderground v.1.15,2013-01-11 23:28:00,
2013-01-11 17:33:00,37.5,35.9,29.36,South,180,8.0,13.0,94,0.00,,,0.00,Wunderground v.1.15,2013-01-11 23:33:00,
2013-01-11 17:38:00,37.7,36.1,29.36,South,179,10.0,13.0,94,0.00,,,0.00,Wunderground v.1.15,2013-01-11 23:38:00,
2013-01-11 17:43:00,37.8,36.2,29.36,South,178,10.0,13.0,94,0.00,,,0.00,Wunderground v.1.15,2013-01-11 23:43:00,
2013-01-11 17:49:00,37.8,36.2,29.36,South,179,8.0,13.0,94,0.00,,,0.00,Wunderground v.1.15,2013-01-11 23:49:00,
2013-01-11 17:54:00,37.9,36.3,29.37,South,183,13.0,15.0,94,0.00,,,0.00,Wunderground v.1.15,2013-01-11 23:54:00,
2013-01-11 17:59:00,37.9,36.3,29.37,South,190,12.0,15.0,94,0.00,,,0.00,Wunderground v.1.15,2013-01-11 23:59:00,
2013-01-11 18:05:00,37.9,36.3,29.37,SSW,192,8.0,15.0,94,0.00,,,0.00,Wunderground v.1.15,2013-01-12 00:05:00,
2013-01-11 18:10:00,37.7,36.4,29.37,SSW,194,10.0,15.0,95,0.00,,,0.00,Wunderground v.1.15,2013-01-12 00:10:00,
2013-01-11 18:15:00,37.4,35.8,29.37,SSW,194,11.0,13.0,94,0.00,,,0.00,Wunderground v.1.15,2013-01-12 00:15:00,
2013-01-11 18:20:00,37.4,35.8,29.38,SSW,194,7.0,13.0,94,0.00,,,0.00,Wunderground v.1.15,2013-01-12 00:20:00,
2013-01-11 18:25:00,37.2,35.6,29.38,SSW,194,9.0,11.0,94,0.00,,,0.00,Wunderground v.1.15,2013-01-12 00:25:00,
2013-01-11 18:30:00,37.1,35.5,29.38,SSW,195,9.0,13.0,94,0.00,,,0.00,Wunderground v.1.15,2013-01-12 00:30:00,
2013-01-11 18:35:00,37.0,35.4,29.38,SSW,195,8.0,11.0,94,0.00,,,0.00,Wunderground v.1.15,2013-01-12 00:35:00,
2013-01-11 18:40:00,37.0,35.4,29.38,SSW,198,7.0,12.0,94,0.00,,,0.00,Wunderground v.1.15,2013-01-12 00:40:00,
2013-01-11 18:45:00,36.8,35.2,29.38,SSW,199,7.0,10.0,94,0.00,,,0.00,Wunderground v.1.15,2013-01-12 00:45:00,
2013-01-11 18:50:00,36.6,35.0,29.38,SSW,202,7.0,11.0,94,0.00,,,0.00,Wunderground v.1.15,2013-01-12 00:50:00,
2013-01-11 18:55:00,36.4,34.8,29.38,SSW,205,7.0,11.0,94,0.00,,,0.00,Wunderground v.1.15,2013-01-12 00:55:00,
2013-01-11 19:01:00,36.6,35.0,29.38,SSW,211,7.0,7.0,94,0.00,,,0.00,Wunderground v.1.15,2013-01-12 01:01:00,
2013-01-11 19:06:00,36.4,34.8,29.38,SW,218,6.0,11.0,94,0.00,,,0.00,Wunderground v.1.15,2013-01-12 01:06:00,
2013-01-11 19:12:00,36.1,34.5,29.39,SW,219,9.0,9.0,94,0.00,,,0.00,Wunderground v.1.15,2013-01-12 01:12:00,
2013-01-11 19:18:00,36.2,34.6,29.38,SW,230,7.0,12.0,94,0.00,,,0.00,Wunderground v.1.15,2013-01-12 01:18:00,
2013-01-11 19:24:00,36.0,34.4,29.39,SW,229,11.0,11.0,94,0.00,,,0.00,Wunderground v.1.15,2013-01-12 01:24:00,
2013-01-11 19:29:00,36.0,34.4,29.39,SW,229,9.0,11.0,94,0.00,,,0.00,Wunderground v.1.15,2013-01-12 01:29:00,
2013-01-11 19:34:00,35.8,34.2,29.39,SW,233,8.0,10.0,94,0.00,,,0.00,Wunderground v.1.15,2013-01-12 01:34:00,
2013-01-11 19:39:00,35.7,34.1,29.39,SW,234,11.0,11.0,94,0.00,,,0.00,Wunderground v.1.15,2013-01-12 01:39:00,
2013-01-11 19:44:00,35.6,34.0,29.39,SW,236,9.0,11.0,94,0.00,,,0.00,Wunderground v.1.15,2013-01-12 01:44:00,
2013-01-11 19:49:00,35.4,33.8,29.39,WSW,237,9.0,11.0,94,0.00,,,0.00,Wunderground v.1.15,2013-01-12 01:49:00,
2013-01-11 19:55:00,35.2,33.6,29.39,WSW,237,6.0,8.0,94,0.00,,,0.00,Wunderground v.1.15,2013-01-12 01:55:00,
2013-01-11 20:00:00,35.1,33.5,29.40,WSW,237,6.0,8.0,94,0.00,,,0.00,Wunderground v.1.15,2013-01-12 02:00:00,
2013-01-11 20:05:00,34.9,33.3,29.40,WSW,237,7.0,8.0,94,0.00,,,0.00,Wunderground v.1.15,2013-01-12 02:05:00,
2013-01-11 20:10:00,34.7,33.2,29.40,WSW,237,8.0,8.0,94,0.00,,,0.00,Wunderground v.1.15,2013-01-12 02:10:00,
2013-01-11 20:15:00,34.4,32.9,29.41,WSW,237,5.0,12.0,94,0.00,,,0.00,Wunderground v.1.15,2013-01-12 02:15:00,
2013-01-11 20:21:00,34.1,32.6,29.41,WSW,253,11.0,11.0,94,0.00,,,0.00,Wunderground v.1.15,2013-01-12 02:21:00,
2013-01-11 20:27:00,32.6,31.1,29.42,West,274,10.0,18.0,94,0.00,,,0.00,Wunderground v.1.15,2013-01-12 02:27:00,
2013-01-11 20:32:00,32.0,30.5,29.42,West,271,13.0,16.0,94,0.00,,,0.00,Wunderground v.1.15,2013-01-12 02:32:00,
2013-01-11 20:37:00,31.7,30.2,29.42,West,260,9.0,17.0,94,0.00,,,0.00,Wunderground v.1.15,2013-01-12 02:37:00,
2013-01-11 20:42:00,31.5,30.0,29.42,West,259,8.0,12.0,94,0.00,,,0.00,Wunderground v.1.15,2013-01-12 02:42:00,
2013-01-11 20:47:00,31.4,29.9,29.41,West,269,10.0,15.0,94,0.00,,,0.00,Wunderground v.1.15,2013-01-12 02:47:00,
2013-01-11 20:52:00,31.4,29.9,29.41,West,272,9.0,13.0,94,0.00,,,0.00,Wunderground v.1.15,2013-01-12 02:52:00,
2013-01-11 20:57:00,31.3,29.8,29.42,West,271,10.0,15.0,94,0.00,,,0.00,Wunderground v.1.15,2013-01-12 02:57:00,
2013-01-11 21:02:00,31.2,29.7,29.42,West,269,14.0,14.0,94,0.00,,,0.00,Wunderground v.1.15,2013-01-12 03:02:00,
2013-01-11 21:08:00,31.0,29.5,29.43,West,260,14.0,16.0,94,0.00,,,0.00,Wunderground v.1.15,2013-01-12 03:08:00,
2013-01-11 21:13:00,30.8,29.3,29.42,WSW,256,14.0,23.0,94,0.00,,,0.00,Wunderground v.1.15,2013-01-12 03:13:00,
2013-01-11 21:18:00,30.7,29.2,29.43,West,265,11.0,23.0,94,0.00,,,0.00,Wunderground v.1.15,2013-01-12 03:18:00,
2013-01-11 21:23:00,30.6,29.1,29.43,WSW,244,15.0,18.0,94,0.00,,,0.00,Wunderground v.1.15,2013-01-12 03:23:00,
2013-01-11 21:28:00,30.5,29.0,29.43,West,261,15.0,19.0,94,0.00,,,0.00,Wunderground v.1.15,2013-01-12 03:28:00,
2013-01-11 21:33:00,30.3,28.8,29.43,West,272,11.0,20.0,94,0.00,,,0.00,Wunderground v.1.15,2013-01-12 03:33:00,
2013-01-11 21:39:00,30.1,28.6,29.43,West,273,14.0,20.0,94,0.00,,,0.00,Wunderground v.1.15,2013-01-12 03:39:00,
2013-01-11 21:44:00,30.0,28.5,29.44,West,261,13.0,17.0,94,0.00,,,0.00,Wunderground v.1.15,2013-01-12 03:44:00,
2013-01-11 21:49:00,29.8,28.3,29.44,West,272,11.0,20.0,94,0.00,,,0.00,Wunderground v.1.15,2013-01-12 03:49:00,
2013-01-11 21:55:00,29.6,28.1,29.44,West,273,13.0,20.0,94,0.00,,,0.00,Wunderground v.1.15,2013-01-12 03:55:00,
2013-01-11 22:00:00,29.3,27.8,29.44,West,264,17.0,20.0,94,0.00,,,0.00,Wunderground v.1.15,2013-01-12 04:00:00,
2013-01-11 22:06:00,29.2,27.7,29.45,West,265,11.0,22.0,94,0.00,,,0.00,Wunderground v.1.15,2013-01-12 04:06:00,
2013-01-11 22:12:00,29.0,27.5,29.45,West,265,12.0,15.0,94,0.00,,,0.00,Wunderground v.1.15,2013-01-12 04:12:00,
2013-01-11 22:17:00,28.5,27.0,29.45,West,275,18.0,20.0,94,0.00,,,0.00,Wunderground v.1.15,2013-01-12 04:17:00,
2013-01-11 22:22:00,27.9,26.4,29.44,West,267,15.0,20.0,94,0.00,,,0.00,Wunderground v.1.15,2013-01-12 04:22:00,
2013-01-11 22:28:00,27.6,26.1,29.44,West,276,8.0,20.0,94,0.00,,,0.00,Wunderground v.1.15,2013-01-12 04:28:00,
2013-01-11 22:34:00,27.5,26.0,29.44,West,272,11.0,16.0,94,0.00,,,0.00,Wunderground v.1.15,2013-01-12 04:34:00,
2013-01-11 22:39:00,27.2,25.7,29.44,West,270,12.0,19.0,94,0.00,,,0.00,Wunderground v.1.15,2013-01-12 04:39:00,
2013-01-11 22:45:00,26.7,25.2,29.44,West,259,15.0,18.0,94,0.00,,,0.00,Wunderground v.1.15,2013-01-12 04:45:00,
2013-01-11 22:50:00,26.3,24.6,29.44,West,271,14.0,19.0,93,0.00,,,0.00,Wunderground v.1.15,2013-01-12 04:50:00,
2013-01-11 22:55:00,26.1,24.4,29.45,West,268,15.0,20.0,93,0.00,,,0.00,Wunderground v.1.15,2013-01-12 04:55:00,
2013-01-11 23:00:00,26.0,24.3,29.46,West,268,19.0,25.0,93,0.00,,,0.00,Wunderground v.1.15,2013-01-12 05:00:00,
2013-01-11 23:01:00,25.9,24.2,29.47,West,261,21.0,21.0,93,0.00,,,0.00,Wunderground v.1.15,2013-01-12 05:01:00,
2013-01-11 23:07:00,25.7,24.0,29.48,West,271,13.0,24.0,93,0.00,,,0.00,Wunderground v.1.15,2013-01-12 05:07:00,
2013-01-11 23:12:00,25.7,24.0,29.50,West,263,19.0,24.0,93,0.00,,,0.00,Wunderground v.1.15,2013-01-12 05:12:00,
2013-01-11 23:17:00,25.2,23.2,29.51,WSW,246,27.0,31.0,92,0.00,,,0.00,Wunderground v.1.15,2013-01-12 05:17:00,
2013-01-11 23:22:00,24.9,22.9,29.50,West,259,17.0,25.0,92,0.00,,,0.00,Wunderground v.1.15,2013-01-12 05:22:00,
2013-01-11 23:27:00,24.6,22.6,29.50,WSW,253,17.0,28.0,92,0.00,,,0.00,Wunderground v.1.15,2013-01-12 05:27:00,
2013-01-11 23:32:00,24.3,22.3,29.49,West,267,16.0,19.0,92,0.00,,,0.00,Wunderground v.1.15,2013-01-12 05:32:00,
2013-01-11 23:37:00,24.2,22.2,29.49,West,270,15.0,25.0,92,0.00,,,0.00,Wunderground v.1.15,2013-01-12 05:37:00,
2013-01-11 23:42:00,24.2,22.0,29.50,West,268,9.0,20.0,91,0.00,,,0.00,Wunderground v.1.15,2013-01-12 05:42:00,
2013-01-11 23:47:00,24.0,22.0,29.51,West,262,15.0,26.0,92,0.00,,,0.00,Wunderground v.1.15,2013-01-12 05:47:00,
2013-01-11 23:52:00,23.9,21.7,29.51,WSW,258,18.0,19.0,91,0.00,,,0.00,Wunderground v.1.15,2013-01-12 05:52:00,
2013-01-11 23:58:00,23.6,21.4,29.51,West,267,21.0,24.0,91,0.00,,,0.00,Wunderground v.1.15,2013-01-12 05:58:00,